Accueil
METAR-TAF:

METAR-TAF

Aéroports :

Aéroport de Belfast-George Best

Belfast City, Irlande du Nord

latitude: 54-36N, longitude: 005-53W, altitude: 5 m

Observation

Le bulletin a été fait il y a 46 minutes, à 04:20 UTC
Vent 1 kt de direction variable
Température 2°C
Humidité 93%
Pression 989 hPa
Visibilité 10 km ou plus
Quelques nuages à une hauteur de 3100 ft

METAR: EGAC 240420Z AUTO VRB01KT 9999 FEW031 02/01 Q0989

Heure: 05:06 (05:06 UTC)

Prévision

Le bulletin a été fait il y a 12 heures et 9 minutes, à 16:57 UTC
Prévision valable du 23 à 18 UTC au 23 à 22 UTC
Vent 13 kt de sud-ouest
Visibilité 10 km ou plus
Quelques nuages à une hauteur de 1200 ft
Nuages épars à une hauteur de 2500 ft

TAF: EGAC 231657Z 2318/2322 23013KT 9999 FEW012 SCT025

Observations et prévisions météorologiques de plus de 4000 aéroports (messages METAR et TAF).

Les stations disponibles sont représentées par des disques jaunes et rouges sur la carte.

Passer la souris dessus pour voir le nom de la station.

Cliquer dessus pour voir les observations et prévisions météorologiques.

Pour changer de carte: cliquez sur les boutons verts avec une croix noire pour zoomer, sur le bouton vert avec un tiret pour effectuer un zoom arrière, ou sur les flèches vertes pour les cartes adjacentes.


METAR-TAF: